sensor_id;sensor_type;location;lat;lon;timestamp;pressure;altitude;pressure_sealevel;temperature;humidity
75424;BME280;64005;55.160;36.002;2022-12-17T00:02:29;99794.56;;;-3.98;75.80
75424;BME280;64005;55.160;36.002;2022-12-17T00:05:13;99790.38;;;-3.94;75.37
75424;BME280;64005;55.160;36.002;2022-12-17T00:07:58;99767.19;;;-3.97;75.40
75424;BME280;64005;55.160;36.002;2022-12-17T00:10:43;99772.25;;;-4.01;75.75
75424;BME280;64005;55.160;36.002;2022-12-17T00:13:27;99755.53;;;-4.04;75.74
75424;BME280;64005;55.160;36.002;2022-12-17T00:16:11;99738.88;;;-4.08;76.19
75424;BME280;64005;55.160;36.002;2022-12-17T00:19:06;99743.69;;;-4.10;75.99
75424;BME280;64005;55.160;36.002;2022-12-17T00:21:51;99755.41;;;-4.09;76.26
75424;BME280;64005;55.160;36.002;2022-12-17T00:24:35;99763.47;;;-4.03;76.32
75424;BME280;64005;55.160;36.002;2022-12-17T00:27:19;99767.41;;;-3.98;76.01
75424;BME280;64005;55.160;36.002;2022-12-17T00:30:04;99761.38;;;-4.01;75.89
75424;BME280;64005;55.160;36.002;2022-12-17T00:32:50;99763.41;;;-3.96;75.90
75424;BME280;64005;55.160;36.002;2022-12-17T00:35:34;99759.25;;;-3.98;76.15
75424;BME280;64005;55.160;36.002;2022-12-17T00:38:19;99751.94;;;-3.98;76.22
75424;BME280;64005;55.160;36.002;2022-12-17T00:41:03;99747.34;;;-3.97;75.92
75424;BME280;64005;55.160;36.002;2022-12-17T00:43:47;99656.94;;;-4.48;76.20
75424;BME280;64005;55.160;36.002;2022-12-17T00:46:32;99736.66;;;-3.92;76.17
75424;BME280;64005;55.160;36.002;2022-12-17T00:49:17;99737.22;;;-3.90;76.27
75424;BME280;64005;55.160;36.002;2022-12-17T00:52:04;99728.84;;;-3.89;76.10
75424;BME280;64005;55.160;36.002;2022-12-17T00:54:49;99731.78;;;-3.90;76.35
75424;BME280;64005;55.160;36.002;2022-12-17T00:57:33;99732.25;;;-3.93;76.47
75424;BME280;64005;55.160;36.002;2022-12-17T01:00:18;99729.28;;;-3.92;76.30
75424;BME280;64005;55.160;36.002;2022-12-17T01:03:07;99724.47;;;-3.90;76.25
75424;BME280;64005;55.160;36.002;2022-12-17T01:05:52;99728.31;;;-3.97;76.45
75424;BME280;64005;55.160;36.002;2022-12-17T01:08:36;99719.72;;;-3.94;76.16
75424;BME280;64005;55.160;36.002;2022-12-17T01:11:20;99724.47;;;-3.90;76.66
75424;BME280;64005;55.160;36.002;2022-12-17T01:14:05;99708.03;;;-3.95;76.32
75424;BME280;64005;55.160;36.002;2022-12-17T01:16:49;99716.31;;;-3.90;76.61
75424;BME280;64005;55.160;36.002;2022-12-17T01:19:33;99705.22;;;-3.88;76.83
75424;BME280;64005;55.160;36.002;2022-12-17T01:22:18;99710.44;;;-3.87;76.80
75424;BME280;64005;55.160;36.002;2022-12-17T01:25:02;99662.59;;;-4.06;76.78
75424;BME280;64005;55.160;36.002;2022-12-17T01:27:48;99689.28;;;-3.85;76.76
75424;BME280;64005;55.160;36.002;2022-12-17T01:30:35;99680.22;;;-3.97;77.19
75424;BME280;64005;55.160;36.002;2022-12-17T01:33:19;99675.63;;;-3.96;77.09
75424;BME280;64005;55.160;36.002;2022-12-17T01:36:04;99677.91;;;-3.93;76.93
75424;BME280;64005;55.160;36.002;2022-12-17T01:38:48;99672.41;;;-3.87;76.72
75424;BME280;64005;55.160;36.002;2022-12-17T01:41:33;99663.34;;;-3.81;76.64
75424;BME280;64005;55.160;36.002;2022-12-17T01:50:30;99662.13;;;-3.85;77.08
75424;BME280;64005;55.160;36.002;2022-12-17T01:53:17;99657.16;;;-3.88;76.90
75424;BME280;64005;55.160;36.002;2022-12-17T01:56:04;99637.06;;;-3.87;76.87
75424;BME280;64005;55.160;36.002;2022-12-17T01:58:49;99636.59;;;-3.84;77.00
75424;BME280;64005;55.160;36.002;2022-12-17T02:01:34;99641.59;;;-3.81;77.20
75424;BME280;64005;55.160;36.002;2022-12-17T02:04:18;99630.72;;;-3.81;77.00
75424;BME280;64005;55.160;36.002;2022-12-17T02:10:15;99624.22;;;-3.80;76.77
75424;BME280;64005;55.160;36.002;2022-12-17T02:13:14;99623.16;;;-3.79;77.25
75424;BME280;64005;55.160;36.002;2022-12-17T02:16:35;99628.84;;;-3.80;77.03
75424;BME280;64005;55.160;36.002;2022-12-17T02:19:30;99629.41;;;-3.78;77.44
75424;BME280;64005;55.160;36.002;2022-12-17T02:22:34;99632.97;;;-3.78;76.87
75424;BME280;64005;55.160;36.002;2022-12-17T02:28:27;99616.44;;;-3.76;76.92
75424;BME280;64005;55.160;36.002;2022-12-17T02:31:15;99603.69;;;-3.76;77.15
75424;BME280;64005;55.160;36.002;2022-12-17T02:34:00;99590.69;;;-3.74;77.21
75424;BME280;64005;55.160;36.002;2022-12-17T02:36:44;99582.53;;;-3.74;77.27
75424;BME280;64005;55.160;36.002;2022-12-17T02:39:29;99573.56;;;-3.74;77.00
75424;BME280;64005;55.160;36.002;2022-12-17T02:42:14;99567.50;;;-3.76;77.27
75424;BME280;64005;55.160;36.002;2022-12-17T02:44:59;99563.13;;;-3.77;77.53
75424;BME280;64005;55.160;36.002;2022-12-17T02:47:44;99567.50;;;-3.76;77.11
75424;BME280;64005;55.160;36.002;2022-12-17T02:50:28;99573.78;;;-3.76;77.42
75424;BME280;64005;55.160;36.002;2022-12-17T02:53:12;99564.44;;;-3.80;77.53
75424;BME280;64005;55.160;36.002;2022-12-17T02:55:57;99555.81;;;-3.77;77.27
75424;BME280;64005;55.160;36.002;2022-12-17T02:58:41;99566.47;;;-3.75;77.42
75424;BME280;64005;55.160;36.002;2022-12-17T03:01:25;99568.69;;;-3.72;77.29
75424;BME280;64005;55.160;36.002;2022-12-17T03:04:10;99571.41;;;-3.72;77.14
75424;BME280;64005;55.160;36.002;2022-12-17T03:06:54;99551.28;;;-3.83;77.42
75424;BME280;64005;55.160;36.002;2022-12-17T03:09:46;99551.34;;;-3.71;77.16
75424;BME280;64005;55.160;36.002;2022-12-17T03:12:31;99529.47;;;-3.76;77.38
75424;BME280;64005;55.160;36.002;2022-12-17T03:15:15;99530.66;;;-3.72;77.33
75424;BME280;64005;55.160;36.002;2022-12-17T03:18:00;99522.25;;;-3.71;77.26
75424;BME280;64005;55.160;36.002;2022-12-17T03:20:44;99524.97;;;-3.71;77.31
75424;BME280;64005;55.160;36.002;2022-12-17T03:23:28;99519.19;;;-3.74;77.45
75424;BME280;64005;55.160;36.002;2022-12-17T03:26:12;99530.19;;;-3.69;77.08
75424;BME280;64005;55.160;36.002;2022-12-17T03:28:57;99528.53;;;-3.70;77.41
75424;BME280;64005;55.160;36.002;2022-12-17T03:31:41;99531.47;;;-3.72;77.63
75424;BME280;64005;55.160;36.002;2022-12-17T03:34:26;99527.13;;;-3.73;77.04
75424;BME280;64005;55.160;36.002;2022-12-17T03:37:10;99497.88;;;-3.89;77.21
75424;BME280;64005;55.160;36.002;2022-12-17T03:39:55;99514.59;;;-3.74;77.55
75424;BME280;64005;55.160;36.002;2022-12-17T03:42:40;99520.25;;;-3.75;77.47
75424;BME280;64005;55.160;36.002;2022-12-17T03:45:25;99509.47;;;-3.82;77.53
75424;BME280;64005;55.160;36.002;2022-12-17T03:48:12;99494.00;;;-3.81;77.94
75424;BME280;64005;55.160;36.002;2022-12-17T03:50:57;99456.69;;;-4.04;77.35
75424;BME280;64005;55.160;36.002;2022-12-17T03:53:42;99487.72;;;-3.82;77.73
75424;BME280;64005;55.160;36.002;2022-12-17T03:56:29;99490.78;;;-3.78;77.72
75424;BME280;64005;55.160;36.002;2022-12-17T03:59:14;99483.97;;;-3.81;77.45
75424;BME280;64005;55.160;36.002;2022-12-17T04:01:58;99485.47;;;-3.85;77.46
75424;BME280;64005;55.160;36.002;2022-12-17T04:04:43;99491.16;;;-3.86;77.99
75424;BME280;64005;55.160;36.002;2022-12-17T04:07:29;99493.88;;;-3.86;77.68
75424;BME280;64005;55.160;36.002;2022-12-17T04:10:14;99500.13;;;-3.86;77.81
75424;BME280;64005;55.160;36.002;2022-12-17T04:12:58;99500.47;;;-3.82;77.86
75424;BME280;64005;55.160;36.002;2022-12-17T04:15:42;99495.88;;;-3.82;77.92
75424;BME280;64005;55.160;36.002;2022-12-17T04:18:27;99487.84;;;-3.77;77.78
75424;BME280;64005;55.160;36.002;2022-12-17T04:21:12;99471.19;;;-3.80;77.78
75424;BME280;64005;55.160;36.002;2022-12-17T04:23:56;99474.75;;;-3.80;77.71
75424;BME280;64005;55.160;36.002;2022-12-17T04:26:41;99487.84;;;-3.77;77.71
75424;BME280;64005;55.160;36.002;2022-12-17T04:29:25;99495.41;;;-3.79;77.76
75424;BME280;64005;55.160;36.002;2022-12-17T04:32:10;99491.63;;;-3.78;77.63
75424;BME280;64005;55.160;36.002;2022-12-17T04:34:54;99491.19;;;-3.75;77.78
75424;BME280;64005;55.160;36.002;2022-12-17T04:37:38;99485.38;;;-3.78;77.69
75424;BME280;64005;55.160;36.002;2022-12-17T04:40:23;99481.72;;;-3.72;77.67
75424;BME280;64005;55.160;36.002;2022-12-17T04:43:09;99479.25;;;-3.74;77.88
75424;BME280;64005;55.160;36.002;2022-12-17T04:45:54;99480.66;;;-3.71;77.92
75424;BME280;64005;55.160;36.002;2022-12-17T04:48:38;99482.31;;;-3.70;77.56
75424;BME280;64005;55.160;36.002;2022-12-17T04:51:22;99471.44;;;-3.70;77.84
75424;BME280;64005;55.160;36.002;2022-12-17T04:54:07;99471.44;;;-3.70;77.66
75424;BME280;64005;55.160;36.002;2022-12-17T04:56:51;99465.78;;;-3.69;77.57
75424;BME280;64005;55.160;36.002;2022-12-17T04:59:35;99455.97;;;-3.70;77.86
75424;BME280;64005;55.160;36.002;2022-12-17T05:02:19;99463.91;;;-3.68;77.93
75424;BME280;64005;55.160;36.002;2022-12-17T05:05:04;99457.03;;;-3.71;77.93
75424;BME280;64005;55.160;36.002;2022-12-17T05:07:52;99469.56;;;-3.70;78.31
75424;BME280;64005;55.160;36.002;2022-12-17T05:10:37;99465.78;;;-3.69;78.06
75424;BME280;64005;55.160;36.002;2022-12-17T05:13:22;99457.41;;;-3.67;77.67
75424;BME280;64005;55.160;36.002;2022-12-17T05:16:07;99465.31;;;-3.66;77.79
75424;BME280;64005;55.160;36.002;2022-12-17T05:18:52;99448.41;;;-3.68;77.84
75424;BME280;64005;55.160;36.002;2022-12-17T05:21:37;99441.31;;;-3.69;77.47
75424;BME280;64005;55.160;36.002;2022-12-17T05:24:21;99443.91;;;-3.74;77.97
75424;BME280;64005;55.160;36.002;2022-12-17T05:27:06;99441.66;;;-3.77;78.05
75424;BME280;64005;55.160;36.002;2022-12-17T05:29:51;99428.88;;;-3.76;78.17
75424;BME280;64005;55.160;36.002;2022-12-17T05:32:35;99437.88;;;-3.76;78.14
75424;BME280;64005;55.160;36.002;2022-12-17T05:35:19;99440.13;;;-3.73;78.09
75424;BME280;64005;55.160;36.002;2022-12-17T05:38:09;99431.16;;;-3.73;78.04
75424;BME280;64005;55.160;36.002;2022-12-17T05:40:57;99444.66;;;-3.67;78.16
75424;BME280;64005;55.160;36.002;2022-12-17T05:43:42;99446.28;;;-3.66;77.93
75424;BME280;64005;55.160;36.002;2022-12-17T05:46:27;99448.91;;;-3.59;78.16
75424;BME280;64005;55.160;36.002;2022-12-17T05:49:12;99446.78;;;-3.57;77.79
75424;BME280;64005;55.160;36.002;2022-12-17T05:51:56;99448.22;;;-3.54;77.87
75424;BME280;64005;55.160;36.002;2022-12-17T05:54:41;99434.50;;;-3.59;78.06
75424;BME280;64005;55.160;36.002;2022-12-17T05:57:25;99442.78;;;-3.54;77.85
75424;BME280;64005;55.160;36.002;2022-12-17T06:00:10;99412.84;;;-3.66;78.00
75424;BME280;64005;55.160;36.002;2022-12-17T06:03:11;99428.13;;;-3.53;78.04
75424;BME280;64005;55.160;36.002;2022-12-17T06:05:56;99430.22;;;-3.55;78.17
75424;BME280;64005;55.160;36.002;2022-12-17T06:08:40;99428.13;;;-3.53;78.44
75424;BME280;64005;55.160;36.002;2022-12-17T06:11:25;99428.34;;;-3.55;78.18
75424;BME280;64005;55.160;36.002;2022-12-17T06:14:09;99428.94;;;-3.53;78.07
75424;BME280;64005;55.160;36.002;2022-12-17T06:16:54;99421.84;;;-3.54;78.02
75424;BME280;64005;55.160;36.002;2022-12-17T06:19:38;99427.28;;;-3.54;78.41
75424;BME280;64005;55.160;36.002;2022-12-17T06:22:23;99442.53;;;-3.53;78.26
75424;BME280;64005;55.160;36.002;2022-12-17T06:25:07;99442.06;;;-3.50;77.69
75424;BME280;64005;55.160;36.002;2022-12-17T06:28:11;99440.78;;;-3.47;78.32
75424;BME280;64005;55.160;36.002;2022-12-17T06:30:55;99437.22;;;-3.48;78.10
75424;BME280;64005;55.160;36.002;2022-12-17T06:33:40;99432.94;;;-3.55;78.01
75424;BME280;64005;55.160;36.002;2022-12-17T06:36:24;99446.56;;;-3.44;78.13
75424;BME280;64005;55.160;36.002;2022-12-17T06:39:09;99445.50;;;-3.43;78.18
75424;BME280;64005;55.160;36.002;2022-12-17T06:41:53;99436.28;;;-3.42;77.94
75424;BME280;64005;55.160;36.002;2022-12-17T06:44:37;99434.00;;;-3.45;78.16
75424;BME280;64005;55.160;36.002;2022-12-17T06:47:22;99438.16;;;-3.42;78.03
75424;BME280;64005;55.160;36.002;2022-12-17T06:50:06;99437.94;;;-3.41;78.15
75424;BME280;64005;55.160;36.002;2022-12-17T06:53:00;99439.81;;;-3.41;78.14
75424;BME280;64005;55.160;36.002;2022-12-17T06:55:45;99442.66;;;-3.36;78.09
75424;BME280;64005;55.160;36.002;2022-12-17T06:58:30;99441.38;;;-3.34;77.93
75424;BME280;64005;55.160;36.002;2022-12-17T07:01:14;99432.00;;;-3.38;77.87
75424;BME280;64005;55.160;36.002;2022-12-17T07:03:58;99432.28;;;-3.28;77.84
75424;BME280;64005;55.160;36.002;2022-12-17T07:06:43;99423.41;;;-3.23;77.84
75424;BME280;64005;55.160;36.002;2022-12-17T07:09:28;99434.03;;;-3.22;77.89
75424;BME280;64005;55.160;36.002;2022-12-17T07:12:12;99438.16;;;-3.19;77.71
75424;BME280;64005;55.160;36.002;2022-12-17T07:14:56;99434.38;;;-3.18;77.80
75424;BME280;64005;55.160;36.002;2022-12-17T07:17:41;99443.59;;;-3.19;77.71
75424;BME280;64005;55.160;36.002;2022-12-17T07:20:25;99438.06;;;-3.24;77.77
75424;BME280;64005;55.160;36.002;2022-12-17T07:23:10;99431.09;;;-3.20;77.64
75424;BME280;64005;55.160;36.002;2022-12-17T07:25:56;99411.19;;;-3.32;77.75
75424;BME280;64005;55.160;36.002;2022-12-17T07:28:40;99402.34;;;-3.28;77.46
75424;BME280;64005;55.160;36.002;2022-12-17T07:31:25;99406.34;;;-3.18;77.77
75424;BME280;64005;55.160;36.002;2022-12-17T07:34:23;99394.41;;;-3.17;77.58
75424;BME280;64005;55.160;36.002;2022-12-17T07:37:08;99388.03;;;-3.23;77.75
75424;BME280;64005;55.160;36.002;2022-12-17T07:39:52;99385.69;;;-3.19;77.60
75424;BME280;64005;55.160;36.002;2022-12-17T07:42:38;99379.16;;;-3.18;77.85
75424;BME280;64005;55.160;36.002;2022-12-17T07:45:23;99390.28;;;-3.08;77.58
75424;BME280;64005;55.160;36.002;2022-12-17T07:48:08;99383.75;;;-3.07;77.60
75424;BME280;64005;55.160;36.002;2022-12-17T07:50:52;99380.91;;;-3.01;77.71
75424;BME280;64005;55.160;36.002;2022-12-17T07:53:36;99380.91;;;-3.01;77.10
75424;BME280;64005;55.160;36.002;2022-12-17T07:56:21;99376.53;;;-3.02;77.50
75424;BME280;64005;55.160;36.002;2022-12-17T07:59:05;99372.03;;;-2.96;77.38
75424;BME280;64005;55.160;36.002;2022-12-17T08:01:50;99386.19;;;-2.83;76.99
75424;BME280;64005;55.160;36.002;2022-12-17T08:04:34;99374.72;;;-2.85;77.23
75424;BME280;64005;55.160;36.002;2022-12-17T08:07:19;99366.69;;;-2.79;77.11
75424;BME280;64005;55.160;36.002;2022-12-17T08:10:03;99383.44;;;-2.71;77.06
75424;BME280;64005;55.160;36.002;2022-12-17T08:13:03;99340.19;;;-2.96;76.81
75424;BME280;64005;55.160;36.002;2022-12-17T08:15:50;99374.44;;;-2.71;77.18
75424;BME280;64005;55.160;36.002;2022-12-17T08:18:35;99377.44;;;-2.73;76.95
75424;BME280;64005;55.160;36.002;2022-12-17T08:23:47;99380.72;;;-2.71;76.55
75424;BME280;64005;55.160;36.002;2022-12-17T08:26:31;99376.69;;;-2.68;76.83
75424;BME280;64005;55.160;36.002;2022-12-17T08:29:16;99375.50;;;-2.61;76.56
75424;BME280;64005;55.160;36.002;2022-12-17T08:32:00;99381.50;;;-2.47;76.90
75424;BME280;64005;55.160;36.002;2022-12-17T08:34:44;99391.19;;;-2.39;76.59
75424;BME280;64005;55.160;36.002;2022-12-17T08:37:30;99392.94;;;-2.33;76.29
75424;BME280;64005;55.160;36.002;2022-12-17T08:40:14;99376.59;;;-2.45;76.25
75424;BME280;64005;55.160;36.002;2022-12-17T08:42:58;99383.09;;;-2.34;76.37
75424;BME280;64005;55.160;36.002;2022-12-17T08:45:50;99391.84;;;-2.32;76.31
75424;BME280;64005;55.160;36.002;2022-12-17T08:48:35;99380.13;;;-2.33;76.54
75424;BME280;64005;55.160;36.002;2022-12-17T08:51:20;99394.31;;;-2.31;76.51
75424;BME280;64005;55.160;36.002;2022-12-17T08:54:05;99393.91;;;-2.39;76.47
75424;BME280;64005;55.160;36.002;2022-12-17T08:56:49;99390.09;;;-2.38;76.66
75424;BME280;64005;55.160;36.002;2022-12-17T08:59:34;99378.03;;;-2.43;76.65
75424;BME280;64005;55.160;36.002;2022-12-17T09:02:18;99364.41;;;-2.43;76.47
75424;BME280;64005;55.160;36.002;2022-12-17T09:05:03;99358.50;;;-2.39;76.12
75424;BME280;64005;55.160;36.002;2022-12-17T09:07:47;99340.97;;;-2.44;76.07
75424;BME280;64005;55.160;36.002;2022-12-17T09:10:32;99358.81;;;-2.36;75.91
75424;BME280;64005;55.160;36.002;2022-12-17T09:13:16;99366.25;;;-2.31;76.28
75424;BME280;64005;55.160;36.002;2022-12-17T09:16:01;99371.22;;;-2.28;75.87
75424;BME280;64005;55.160;36.002;2022-12-17T09:18:45;99363.88;;;-2.28;76.33
75424;BME280;64005;55.160;36.002;2022-12-17T09:21:30;99363.97;;;-2.23;76.14
75424;BME280;64005;55.160;36.002;2022-12-17T09:24:15;99364.97;;;-2.12;75.82
75424;BME280;64005;55.160;36.002;2022-12-17T09:26:47;99361.53;;;-2.08;75.78
75424;BME280;64005;55.160;36.002;2022-12-17T09:29:31;99356.00;;;-1.96;75.74
75424;BME280;64005;55.160;36.002;2022-12-17T09:32:16;99348.88;;;-1.97;75.66
75424;BME280;64005;55.160;36.002;2022-12-17T09:35:00;99343.34;;;-2.02;75.99
75424;BME280;64005;55.160;36.002;2022-12-17T09:37:51;99336.84;;;-2.01;75.59
75424;BME280;64005;55.160;36.002;2022-12-17T09:40:35;99333.53;;;-2.03;75.84
75424;BME280;64005;55.160;36.002;2022-12-17T09:43:33;99319.31;;;-2.05;76.14
75424;BME280;64005;55.160;36.002;2022-12-17T09:49:27;99326.34;;;-2.09;75.75
75424;BME280;64005;55.160;36.002;2022-12-17T09:52:29;99332.38;;;-2.07;75.81
75424;BME280;64005;55.160;36.002;2022-12-17T09:55:23;99325.25;;;-2.08;75.63
75424;BME280;64005;55.160;36.002;2022-12-17T09:58:22;99330.72;;;-2.08;75.98
75424;BME280;64005;55.160;36.002;2022-12-17T10:01:23;99339.13;;;-2.10;75.89
75424;BME280;64005;55.160;36.002;2022-12-17T10:04:32;99333.00;;;-2.17;75.80
75424;BME280;64005;55.160;36.002;2022-12-17T10:07:21;99321.00;;;-2.32;76.09
75424;BME280;64005;55.160;36.002;2022-12-17T10:10:29;99336.75;;;-2.06;75.92
75424;BME280;64005;55.160;36.002;2022-12-17T10:13:19;99338.72;;;-2.02;75.60
75424;BME280;64005;55.160;36.002;2022-12-17T10:19:04;99317.69;;;-2.06;75.47
75424;BME280;64005;55.160;36.002;2022-12-17T10:21:49;99320.13;;;-2.05;75.71
75424;BME280;64005;55.160;36.002;2022-12-17T10:24:43;99342.84;;;-1.99;75.20
75424;BME280;64005;55.160;36.002;2022-12-17T10:29:56;99330.19;;;-2.22;75.47
75424;BME280;64005;55.160;36.002;2022-12-17T10:32:40;99334.97;;;-2.12;75.55
75424;BME280;64005;55.160;36.002;2022-12-17T10:35:33;99335.81;;;-2.12;75.45
75424;BME280;64005;55.160;36.002;2022-12-17T10:38:22;99339.97;;;-2.09;76.19
75424;BME280;64005;55.160;36.002;2022-12-17T10:41:23;99334.81;;;-2.06;75.08
75424;BME280;64005;55.160;36.002;2022-12-17T10:44:32;99329.38;;;-2.06;75.56
75424;BME280;64005;55.160;36.002;2022-12-17T10:50:19;99324.94;;;-1.95;75.19
75424;BME280;64005;55.160;36.002;2022-12-17T10:53:20;99316.75;;;-1.95;75.18
75424;BME280;64005;55.160;36.002;2022-12-17T10:56:06;99317.59;;;-1.94;75.64
75424;BME280;64005;55.160;36.002;2022-12-17T10:58:52;99298.28;;;-1.93;75.92
75424;BME280;64005;55.160;36.002;2022-12-17T11:01:41;99297.84;;;-1.85;75.80
75424;BME280;64005;55.160;36.002;2022-12-17T11:04:31;99290.38;;;-1.73;75.29
75424;BME280;64005;55.160;36.002;2022-12-17T11:07:25;99292.53;;;-1.58;75.13
75424;BME280;64005;55.160;36.002;2022-12-17T11:10:15;99294.91;;;-1.45;75.04
75424;BME280;64005;55.160;36.002;2022-12-17T11:13:20;99289.53;;;-1.40;74.45
75424;BME280;64005;55.160;36.002;2022-12-17T11:16:31;99286.22;;;-1.42;74.18
75424;BME280;64005;55.160;36.002;2022-12-17T11:19:35;99279.94;;;-1.42;75.09
75424;BME280;64005;55.160;36.002;2022-12-17T11:22:32;99261.97;;;-1.60;75.04
75424;BME280;64005;55.160;36.002;2022-12-17T11:25:52;99275.09;;;-1.57;74.65
75424;BME280;64005;55.160;36.002;2022-12-17T11:28:38;99267.25;;;-1.70;74.77
75424;BME280;64005;55.160;36.002;2022-12-17T11:37:16;99275.78;;;-1.67;74.70
75424;BME280;64005;55.160;36.002;2022-12-17T11:40:29;99287.34;;;-1.76;75.39
75424;BME280;64005;55.160;36.002;2022-12-17T11:43:21;99290.25;;;-1.83;75.13
75424;BME280;64005;55.160;36.002;2022-12-17T11:46:32;99312.81;;;-1.87;75.39
75424;BME280;64005;55.160;36.002;2022-12-17T11:49:44;99309.72;;;-1.91;75.14
75424;BME280;64005;55.160;36.002;2022-12-17T11:52:48;99307.25;;;-1.92;75.14
75424;BME280;64005;55.160;36.002;2022-12-17T11:58:52;99299.50;;;-2.01;75.44
75424;BME280;64005;55.160;36.002;2022-12-17T12:04:40;99307.56;;;-2.06;75.32
75424;BME280;64005;55.160;36.002;2022-12-17T12:07:41;99293.16;;;-2.06;75.54
75424;BME280;64005;55.160;36.002;2022-12-17T12:10:43;99297.78;;;-2.07;75.46
75424;BME280;64005;55.160;36.002;2022-12-17T12:13:43;99300.16;;;-2.10;75.45
75424;BME280;64005;55.160;36.002;2022-12-17T12:19:29;99302.56;;;-2.14;75.51
75424;BME280;64005;55.160;36.002;2022-12-17T12:29:39;99299.78;;;-2.30;75.58
75424;BME280;64005;55.160;36.002;2022-12-17T12:32:06;99314.47;;;-2.31;75.90
75424;BME280;64005;55.160;36.002;2022-12-17T12:34:53;99324.97;;;-2.40;75.81
75424;BME280;64005;55.160;36.002;2022-12-17T12:37:38;99318.78;;;-2.35;76.30
75424;BME280;64005;55.160;36.002;2022-12-17T12:40:47;99302.66;;;-2.37;76.24
75424;BME280;64005;55.160;36.002;2022-12-17T12:43:39;99308.63;;;-2.40;75.59
75424;BME280;64005;55.160;36.002;2022-12-17T12:46:38;99294.75;;;-2.38;76.11
75424;BME280;64005;55.160;36.002;2022-12-17T12:49:33;99300.44;;;-2.40;76.20
75424;BME280;64005;55.160;36.002;2022-12-17T12:52:23;99305.63;;;-2.38;76.07
75424;BME280;64005;55.160;36.002;2022-12-17T12:55:09;99310.00;;;-2.37;75.98
75424;BME280;64005;55.160;36.002;2022-12-17T12:57:59;99302.09;;;-2.39;76.05
75424;BME280;64005;55.160;36.002;2022-12-17T13:06:39;99288.38;;;-2.44;76.33
75424;BME280;64005;55.160;36.002;2022-12-17T13:12:18;99283.59;;;-2.54;76.38
75424;BME280;64005;55.160;36.002;2022-12-17T13:17:27;99282.25;;;-2.51;76.24
75424;BME280;64005;55.160;36.002;2022-12-17T13:20:03;99273.84;;;-2.50;76.09
75424;BME280;64005;55.160;36.002;2022-12-17T13:22:30;99245.63;;;-2.60;76.08
75424;BME280;64005;55.160;36.002;2022-12-17T13:25:21;99256.00;;;-2.57;76.31
75424;BME280;64005;55.160;36.002;2022-12-17T13:27:48;99262.88;;;-2.55;76.57
75424;BME280;64005;55.160;36.002;2022-12-17T13:32:55;99263.47;;;-2.53;76.51
75424;BME280;64005;55.160;36.002;2022-12-17T13:36:28;99266.19;;;-2.53;76.33
75424;BME280;64005;55.160;36.002;2022-12-17T13:41:20;99262.28;;;-2.57;76.25
75424;BME280;64005;55.160;36.002;2022-12-17T13:43:53;99264.75;;;-2.55;76.77
75424;BME280;64005;55.160;36.002;2022-12-17T13:46:33;99260.16;;;-2.55;76.47
75424;BME280;64005;55.160;36.002;2022-12-17T13:49:02;99259.31;;;-2.55;76.54
75424;BME280;64005;55.160;36.002;2022-12-17T13:51:31;99258.25;;;-2.54;76.30
75424;BME280;64005;55.160;36.002;2022-12-17T13:53:59;99251.88;;;-2.60;76.30
75424;BME280;64005;55.160;36.002;2022-12-17T13:56:32;99243.28;;;-2.52;76.45
75424;BME280;64005;55.160;36.002;2022-12-17T13:59:00;99226.72;;;-2.50;76.31
75424;BME280;64005;55.160;36.002;2022-12-17T14:01:28;99224.00;;;-2.50;76.27
75424;BME280;64005;55.160;36.002;2022-12-17T14:03:59;99224.50;;;-2.53;76.75
75424;BME280;64005;55.160;36.002;2022-12-17T14:06:26;99226.72;;;-2.67;76.70
75424;BME280;64005;55.160;36.002;2022-12-17T14:08:55;99234.97;;;-2.62;76.33
75424;BME280;64005;55.160;36.002;2022-12-17T14:11:22;99240.16;;;-2.60;76.61
75424;BME280;64005;55.160;36.002;2022-12-17T14:17:04;99217.78;;;-2.62;76.89
75424;BME280;64005;55.160;36.002;2022-12-17T14:19:30;99220.28;;;-2.61;76.92
75424;BME280;64005;55.160;36.002;2022-12-17T14:21:57;99218.63;;;-2.62;76.59
75424;BME280;64005;55.160;36.002;2022-12-17T14:24:24;99233.16;;;-2.56;76.96
75424;BME280;64005;55.160;36.002;2022-12-17T14:26:56;99232.41;;;-2.52;76.22
75424;BME280;64005;55.160;36.002;2022-12-17T14:29:25;99235.63;;;-2.55;76.64
75424;BME280;64005;55.160;36.002;2022-12-17T14:31:53;99224.50;;;-2.53;76.91
75424;BME280;64005;55.160;36.002;2022-12-17T14:34:19;99234.31;;;-2.52;76.35
75424;BME280;64005;55.160;36.002;2022-12-17T14:36:45;99241.41;;;-2.51;76.81
75424;BME280;64005;55.160;36.002;2022-12-17T14:39:22;99244.13;;;-2.51;76.30
75424;BME280;64005;55.160;36.002;2022-12-17T14:41:48;99219.28;;;-2.55;76.18
75424;BME280;64005;55.160;36.002;2022-12-17T14:44:33;99193.22;;;-2.51;76.31
75424;BME280;64005;55.160;36.002;2022-12-17T14:49:56;99177.03;;;-2.57;76.40
75424;BME280;64005;55.160;36.002;2022-12-17T14:52:38;99176.72;;;-2.61;76.56
75424;BME280;64005;55.160;36.002;2022-12-17T14:55:24;99177.84;;;-2.57;76.42
75424;BME280;64005;55.160;36.002;2022-12-17T14:57:51;99171.59;;;-2.57;76.66
75424;BME280;64005;55.160;36.002;2022-12-17T15:00:17;99173.16;;;-2.61;76.99
75424;BME280;64005;55.160;36.002;2022-12-17T15:02:44;99184.66;;;-2.59;76.69
75424;BME280;64005;55.160;36.002;2022-12-17T15:05:13;99181.66;;;-2.58;76.38
75424;BME280;64005;55.160;36.002;2022-12-17T15:07:40;99174.38;;;-2.69;76.34
75424;BME280;64005;55.160;36.002;2022-12-17T15:10:15;99180.59;;;-2.57;77.10
75424;BME280;64005;55.160;36.002;2022-12-17T15:12:42;99195.94;;;-2.51;76.79
75424;BME280;64005;55.160;36.002;2022-12-17T15:15:12;99205.69;;;-2.55;76.24
75424;BME280;64005;55.160;36.002;2022-12-17T15:17:38;99204.34;;;-2.52;76.46
75424;BME280;64005;55.160;36.002;2022-12-17T15:20:04;99196.44;;;-2.54;76.53
75424;BME280;64005;55.160;36.002;2022-12-17T15:22:30;99200.56;;;-2.51;76.68
75424;BME280;64005;55.160;36.002;2022-12-17T15:24:56;99202.44;;;-2.52;76.56
75424;BME280;64005;55.160;36.002;2022-12-17T15:27:21;99189.09;;;-2.53;76.93
75424;BME280;64005;55.160;36.002;2022-12-17T15:29:47;99174.91;;;-2.55;76.81
75424;BME280;64005;55.160;36.002;2022-12-17T15:32:18;99172.16;;;-2.55;76.81
75424;BME280;64005;55.160;36.002;2022-12-17T15:34:45;99170.03;;;-2.53;76.76